sensor_id;sensor_type;location;lat;lon;timestamp;pressure;altitude;pressure_sealevel;temperature;humidity
46876;BME280;32866;50.160;14.768;2023-02-28T00:00:46;100589.44;;;-1.64;100.00
46876;BME280;32866;50.160;14.768;2023-02-28T00:03:11;100593.97;;;-1.56;100.00
46876;BME280;32866;50.160;14.768;2023-02-28T00:05:37;100541.25;;;-1.99;100.00
46876;BME280;32866;50.160;14.768;2023-02-28T00:08:02;100589.97;;;-1.79;100.00
46876;BME280;32866;50.160;14.768;2023-02-28T00:10:30;100588.59;;;-1.85;100.00
46876;BME280;32866;50.160;14.768;2023-02-28T00:12:59;100586.09;;;-1.91;100.00
46876;BME280;32866;50.160;14.768;2023-02-28T00:15:25;100553.66;;;-2.15;100.00
46876;BME280;32866;50.160;14.768;2023-02-28T00:17:51;100583.22;;;-1.85;100.00
46876;BME280;32866;50.160;14.768;2023-02-28T00:20:16;100583.28;;;-1.94;100.00
46876;BME280;32866;50.160;14.768;2023-02-28T00:22:44;100589.94;;;-2.00;100.00
46876;BME280;32866;50.160;14.768;2023-02-28T00:25:11;100589.63;;;-1.99;100.00
46876;BME280;32866;50.160;14.768;2023-02-28T00:27:38;100588.53;;;-2.07;100.00
46876;BME280;32866;50.160;14.768;2023-02-28T00:30:06;100570.75;;;-2.20;100.00
46876;BME280;32866;50.160;14.768;2023-02-28T00:32:32;100591.25;;;-2.15;100.00
46876;BME280;32866;50.160;14.768;2023-02-28T00:34:57;100589.69;;;-2.16;100.00
46876;BME280;32866;50.160;14.768;2023-02-28T00:37:23;100549.28;;;-2.76;100.00
46876;BME280;32866;50.160;14.768;2023-02-28T00:39:48;100592.78;;;-2.44;100.00
46876;BME280;32866;50.160;14.768;2023-02-28T00:42:14;100593.91;;;-2.54;100.00
46876;BME280;32866;50.160;14.768;2023-02-28T00:44:39;100587.41;;;-2.44;100.00
46876;BME280;32866;50.160;14.768;2023-02-28T00:47:05;100587.94;;;-2.59;100.00
46876;BME280;32866;50.160;14.768;2023-02-28T00:49:30;100557.06;;;-3.09;100.00
46876;BME280;32866;50.160;14.768;2023-02-28T00:51:56;100574.44;;;-2.98;100.00
46876;BME280;32866;50.160;14.768;2023-02-28T00:54:22;100590.81;;;-2.82;100.00
46876;BME280;32866;50.160;14.768;2023-02-28T00:56:48;100568.13;;;-3.11;100.00
46876;BME280;32866;50.160;14.768;2023-02-28T00:59:15;100594.31;;;-3.08;100.00
46876;BME280;32866;50.160;14.768;2023-02-28T01:01:40;100595.88;;;-3.07;100.00
46876;BME280;32866;50.160;14.768;2023-02-28T01:04:06;100580.75;;;-3.11;100.00
46876;BME280;32866;50.160;14.768;2023-02-28T01:06:32;100581.84;;;-3.21;100.00
46876;BME280;32866;50.160;14.768;2023-02-28T01:08:58;100562.59;;;-3.58;100.00
46876;BME280;32866;50.160;14.768;2023-02-28T01:11:23;100583.75;;;-3.22;100.00
46876;BME280;32866;50.160;14.768;2023-02-28T01:13:49;100555.81;;;-3.64;100.00
46876;BME280;32866;50.160;14.768;2023-02-28T01:16:14;100591.78;;;-3.39;100.00
46876;BME280;32866;50.160;14.768;2023-02-28T01:18:40;100588.00;;;-3.47;100.00
46876;BME280;32866;50.160;14.768;2023-02-28T01:21:08;100591.78;;;-3.48;100.00
46876;BME280;32866;50.160;14.768;2023-02-28T01:23:34;100585.47;;;-3.34;100.00
46876;BME280;32866;50.160;14.768;2023-02-28T01:26:11;100580.72;;;-3.55;100.00
46876;BME280;32866;50.160;14.768;2023-02-28T01:28:37;100588.94;;;-3.51;100.00
46876;BME280;32866;50.160;14.768;2023-02-28T01:31:02;100581.19;;;-3.62;100.00
46876;BME280;32866;50.160;14.768;2023-02-28T01:33:28;100581.00;;;-3.65;100.00
46876;BME280;32866;50.160;14.768;2023-02-28T01:36:00;100543.91;;;-3.98;100.00
46876;BME280;32866;50.160;14.768;2023-02-28T01:38:26;100590.78;;;-3.69;100.00
46876;BME280;32866;50.160;14.768;2023-02-28T01:40:51;100586.41;;;-3.48;100.00
46876;BME280;32866;50.160;14.768;2023-02-28T01:43:25;100586.56;;;-3.44;100.00
46876;BME280;32866;50.160;14.768;2023-02-28T01:45:53;100591.78;;;-3.48;100.00
46876;BME280;32866;50.160;14.768;2023-02-28T01:48:20;100581.97;;;-3.44;100.00
46876;BME280;32866;50.160;14.768;2023-02-28T01:50:47;100541.28;;;-3.81;100.00
46876;BME280;32866;50.160;14.768;2023-02-28T01:53:18;100582.91;;;-3.57;100.00
46876;BME280;32866;50.160;14.768;2023-02-28T01:55:47;100577.41;;;-3.61;100.00
46876;BME280;32866;50.160;14.768;2023-02-28T01:58:14;100574.91;;;-3.48;100.00
46876;BME280;32866;50.160;14.768;2023-02-28T02:00:39;100582.28;;;-3.45;100.00
46876;BME280;32866;50.160;14.768;2023-02-28T02:03:12;100567.66;;;-3.48;100.00
46876;BME280;32866;50.160;14.768;2023-02-28T02:05:39;100573.00;;;-3.39;100.00
46876;BME280;32866;50.160;14.768;2023-02-28T02:08:09;100563.53;;;-3.45;100.00
46876;BME280;32866;50.160;14.768;2023-02-28T02:10:41;100524.88;;;-3.88;100.00
46876;BME280;32866;50.160;14.768;2023-02-28T02:27:23;100570.56;;;-3.84;100.00
46876;BME280;32866;50.160;14.768;2023-02-28T02:38:16;100570.41;;;-3.97;100.00
46876;BME280;32866;50.160;14.768;2023-02-28T02:43:32;100570.09;;;-3.95;100.00
46876;BME280;32866;50.160;14.768;2023-02-28T02:46:07;100571.78;;;-3.99;100.00
46876;BME280;32866;50.160;14.768;2023-02-28T02:48:37;100564.53;;;-4.07;100.00
46876;BME280;32866;50.160;14.768;2023-02-28T02:51:09;100570.78;;;-4.21;100.00
46876;BME280;32866;50.160;14.768;2023-02-28T02:53:48;100566.69;;;-4.18;100.00
46876;BME280;32866;50.160;14.768;2023-02-28T02:56:19;100571.75;;;-4.17;100.00
46876;BME280;32866;50.160;14.768;2023-02-28T02:58:48;100574.09;;;-4.24;100.00
46876;BME280;32866;50.160;14.768;2023-02-28T03:01:23;100563.50;;;-4.29;100.00
46876;BME280;32866;50.160;14.768;2023-02-28T03:04:06;100575.09;;;-4.42;100.00
46876;BME280;32866;50.160;14.768;2023-02-28T03:06:32;100567.84;;;-4.51;100.00
46876;BME280;32866;50.160;14.768;2023-02-28T03:08:59;100566.75;;;-4.41;100.00
46876;BME280;32866;50.160;14.768;2023-02-28T03:11:25;100530.00;;;-4.58;100.00
46876;BME280;32866;50.160;14.768;2023-02-28T03:14:08;100582.91;;;-4.23;100.00
46876;BME280;32866;50.160;14.768;2023-02-28T03:21:44;100523.56;;;-4.57;100.00
46876;BME280;32866;50.160;14.768;2023-02-28T03:24:19;100526.41;;;-4.85;100.00
46876;BME280;32866;50.160;14.768;2023-02-28T03:26:52;100568.63;;;-4.50;100.00
46876;BME280;32866;50.160;14.768;2023-02-28T03:29:43;100574.91;;;-4.46;100.00
46876;BME280;32866;50.160;14.768;2023-02-28T03:32:22;100574.88;;;-4.55;100.00
46876;BME280;32866;50.160;14.768;2023-02-28T03:34:57;100566.78;;;-4.72;100.00
46876;BME280;32866;50.160;14.768;2023-02-28T03:37:25;100523.34;;;-5.00;100.00
46876;BME280;32866;50.160;14.768;2023-02-28T03:40:05;100567.72;;;-4.68;100.00
46876;BME280;32866;50.160;14.768;2023-02-28T03:42:35;100568.06;;;-4.61;100.00
46876;BME280;32866;50.160;14.768;2023-02-28T03:45:11;100570.66;;;-4.78;100.00
46876;BME280;32866;50.160;14.768;2023-02-28T03:48:02;100574.06;;;-4.64;100.00
46876;BME280;32866;50.160;14.768;2023-02-28T03:50:41;100573.78;;;-4.54;100.00
46876;BME280;32866;50.160;14.768;2023-02-28T03:53:19;100575.47;;;-4.58;100.00
46876;BME280;32866;50.160;14.768;2023-02-28T03:55:50;100572.91;;;-4.72;100.00
46876;BME280;32866;50.160;14.768;2023-02-28T04:01:14;100575.06;;;-4.82;100.00
46876;BME280;32866;50.160;14.768;2023-02-28T04:03:40;100570.34;;;-4.99;100.00
46876;BME280;32866;50.160;14.768;2023-02-28T04:06:19;100552.53;;;-5.27;100.00
46876;BME280;32866;50.160;14.768;2023-02-28T04:08:46;100577.66;;;-5.14;100.00
46876;BME280;32866;50.160;14.768;2023-02-28T04:13:46;100587.56;;;-5.14;100.00
46876;BME280;32866;50.160;14.768;2023-02-28T04:16:11;100585.63;;;-5.23;100.00
46876;BME280;32866;50.160;14.768;2023-02-28T04:18:40;100582.84;;;-5.31;100.00
46876;BME280;32866;50.160;14.768;2023-02-28T04:21:06;100583.59;;;-5.39;100.00
46876;BME280;32866;50.160;14.768;2023-02-28T04:23:32;100581.34;;;-5.24;100.00
46876;BME280;32866;50.160;14.768;2023-02-28T04:25:58;100577.91;;;-5.38;100.00
46876;BME280;32866;50.160;14.768;2023-02-28T04:28:23;100586.94;;;-5.11;100.00
46876;BME280;32866;50.160;14.768;2023-02-28T04:30:57;100573.19;;;-5.41;100.00
46876;BME280;32866;50.160;14.768;2023-02-28T04:33:23;100584.13;;;-5.29;100.00
46876;BME280;32866;50.160;14.768;2023-02-28T04:35:57;100586.63;;;-5.32;100.00
46876;BME280;32866;50.160;14.768;2023-02-28T04:38:22;100557.28;;;-5.60;100.00
46876;BME280;32866;50.160;14.768;2023-02-28T04:40:48;100581.09;;;-5.36;100.00
46876;BME280;32866;50.160;14.768;2023-02-28T04:43:13;100552.44;;;-5.58;100.00
46876;BME280;32866;50.160;14.768;2023-02-28T04:45:38;100589.47;;;-5.29;100.00
46876;BME280;32866;50.160;14.768;2023-02-28T04:48:04;100555.63;;;-5.70;100.00
46876;BME280;32866;50.160;14.768;2023-02-28T04:50:29;100543.44;;;-5.62;100.00
46876;BME280;32866;50.160;14.768;2023-02-28T04:52:56;100595.94;;;-5.44;100.00
46876;BME280;32866;50.160;14.768;2023-02-28T04:55:21;100597.84;;;-5.44;100.00
46876;BME280;32866;50.160;14.768;2023-02-28T04:57:46;100587.38;;;-5.54;100.00
46876;BME280;32866;50.160;14.768;2023-02-28T05:00:12;100602.91;;;-5.56;100.00
46876;BME280;32866;50.160;14.768;2023-02-28T05:02:40;100536.66;;;-5.82;100.00
46876;BME280;32866;50.160;14.768;2023-02-28T05:05:05;100595.91;;;-5.66;100.00
46876;BME280;32866;50.160;14.768;2023-02-28T05:07:32;100605.28;;;-5.69;100.00
46876;BME280;32866;50.160;14.768;2023-02-28T05:10:00;100550.38;;;-6.11;100.00
46876;BME280;32866;50.160;14.768;2023-02-28T05:12:25;100608.44;;;-5.67;100.00
46876;BME280;32866;50.160;14.768;2023-02-28T05:14:50;100571.25;;;-6.00;100.00
46876;BME280;32866;50.160;14.768;2023-02-28T05:17:16;100609.03;;;-5.70;100.00
46876;BME280;32866;50.160;14.768;2023-02-28T05:19:41;100602.53;;;-5.64;100.00
46876;BME280;32866;50.160;14.768;2023-02-28T05:22:11;100610.41;;;-5.59;100.00
46876;BME280;32866;50.160;14.768;2023-02-28T05:24:38;100553.88;;;-5.88;100.00
46876;BME280;32866;50.160;14.768;2023-02-28T05:27:03;100621.88;;;-5.58;100.00
46876;BME280;32866;50.160;14.768;2023-02-28T05:29:28;100620.28;;;-5.45;100.00
46876;BME280;32866;50.160;14.768;2023-02-28T05:31:53;100621.03;;;-5.67;100.00
46876;BME280;32866;50.160;14.768;2023-02-28T05:34:19;100619.63;;;-5.79;100.00
46876;BME280;32866;50.160;14.768;2023-02-28T05:36:44;100626.88;;;-5.79;100.00
46876;BME280;32866;50.160;14.768;2023-02-28T05:39:09;100624.19;;;-5.79;100.00
46876;BME280;32866;50.160;14.768;2023-02-28T05:41:42;100638.34;;;-5.92;100.00
46876;BME280;32866;50.160;14.768;2023-02-28T05:44:08;100636.88;;;-5.99;100.00
46876;BME280;32866;50.160;14.768;2023-02-28T05:46:33;100633.22;;;-6.03;100.00
46876;BME280;32866;50.160;14.768;2023-02-28T05:48:58;100588.13;;;-6.32;100.00
46876;BME280;32866;50.160;14.768;2023-02-28T05:51:25;100630.94;;;-6.09;100.00
46876;BME280;32866;50.160;14.768;2023-02-28T05:53:50;100637.38;;;-6.10;100.00
46876;BME280;32866;50.160;14.768;2023-02-28T05:56:16;100632.41;;;-6.17;100.00
46876;BME280;32866;50.160;14.768;2023-02-28T05:58:41;100640.31;;;-6.12;100.00
46876;BME280;32866;50.160;14.768;2023-02-28T06:01:52;100642.91;;;-6.07;100.00
46876;BME280;32866;50.160;14.768;2023-02-28T06:03:52;100649.03;;;-5.92;100.00
46876;BME280;32866;50.160;14.768;2023-02-28T06:06:17;100650.81;;;-6.02;100.00
46876;BME280;32866;50.160;14.768;2023-02-28T06:08:42;100649.84;;;-6.06;100.00
46876;BME280;32866;50.160;14.768;2023-02-28T06:11:09;100623.72;;;-6.23;100.00
46876;BME280;32866;50.160;14.768;2023-02-28T06:13:34;100645.47;;;-5.74;100.00
46876;BME280;32866;50.160;14.768;2023-02-28T06:16:01;100649.78;;;-5.50;100.00
46876;BME280;32866;50.160;14.768;2023-02-28T06:18:26;100651.06;;;-5.34;100.00
46876;BME280;32866;50.160;14.768;2023-02-28T06:20:55;100653.22;;;-5.22;100.00
46876;BME280;32866;50.160;14.768;2023-02-28T06:23:21;100653.66;;;-5.06;100.00
46876;BME280;32866;50.160;14.768;2023-02-28T06:25:47;100661.13;;;-4.80;100.00
46876;BME280;32866;50.160;14.768;2023-02-28T06:28:12;100634.38;;;-4.80;100.00
46876;BME280;32866;50.160;14.768;2023-02-28T06:30:38;100669.75;;;-4.38;100.00
46876;BME280;32866;50.160;14.768;2023-02-28T06:33:04;100673.50;;;-4.17;100.00
46876;BME280;32866;50.160;14.768;2023-02-28T06:35:29;100679.91;;;-3.95;100.00
46876;BME280;32866;50.160;14.768;2023-02-28T06:37:55;100674.28;;;-3.85;100.00
46876;BME280;32866;50.160;14.768;2023-02-28T06:40:20;100682.19;;;-3.71;100.00
46876;BME280;32866;50.160;14.768;2023-02-28T06:42:45;100687.28;;;-3.52;100.00
46876;BME280;32866;50.160;14.768;2023-02-28T06:45:11;100693.50;;;-3.34;100.00
46876;BME280;32866;50.160;14.768;2023-02-28T06:47:41;100699.09;;;-2.95;100.00
46876;BME280;32866;50.160;14.768;2023-02-28T06:50:12;100701.28;;;-2.80;100.00
46876;BME280;32866;50.160;14.768;2023-02-28T06:52:37;100662.16;;;-2.81;100.00
46876;BME280;32866;50.160;14.768;2023-02-28T06:55:05;100700.47;;;-2.28;100.00
46876;BME280;32866;50.160;14.768;2023-02-28T06:57:32;100688.00;;;-1.77;100.00
46876;BME280;32866;50.160;14.768;2023-02-28T07:00:03;100704.34;;;-1.22;100.00
46876;BME280;32866;50.160;14.768;2023-02-28T07:02:29;100703.72;;;-0.98;100.00
46876;BME280;32866;50.160;14.768;2023-02-28T07:04:55;100673.72;;;-0.21;100.00
46876;BME280;32866;50.160;14.768;2023-02-28T07:07:20;100712.34;;;0.66;100.00
46876;BME280;32866;50.160;14.768;2023-02-28T07:09:45;100712.06;;;1.08;100.00
46876;BME280;32866;50.160;14.768;2023-02-28T07:12:11;100694.25;;;0.42;100.00
46876;BME280;32866;50.160;14.768;2023-02-28T07:14:36;100718.19;;;0.92;100.00
46876;BME280;32866;50.160;14.768;2023-02-28T07:17:02;100721.66;;;0.93;100.00
46876;BME280;32866;50.160;14.768;2023-02-28T07:19:28;100700.75;;;0.53;100.00
46876;BME280;32866;50.160;14.768;2023-02-28T07:21:53;100713.94;;;-0.16;100.00
46876;BME280;32866;50.160;14.768;2023-02-28T07:24:19;100712.22;;;0.25;100.00
46876;BME280;32866;50.160;14.768;2023-02-28T07:26:44;100718.84;;;0.40;100.00
46876;BME280;32866;50.160;14.768;2023-02-28T07:29:10;100705.13;;;0.70;100.00
46876;BME280;32866;50.160;14.768;2023-02-28T07:31:35;100695.34;;;0.28;100.00
46876;BME280;32866;50.160;14.768;2023-02-28T07:34:00;100735.59;;;1.07;100.00
46876;BME280;32866;50.160;14.768;2023-02-28T07:36:26;100733.97;;;1.19;100.00
46876;BME280;32866;50.160;14.768;2023-02-28T07:38:51;100722.06;;;1.48;100.00
46876;BME280;32866;50.160;14.768;2023-02-28T07:41:19;100727.06;;;2.06;100.00
46876;BME280;32866;50.160;14.768;2023-02-28T07:43:45;100732.59;;;2.57;100.00
46876;BME280;32866;50.160;14.768;2023-02-28T07:46:12;100730.66;;;2.74;100.00
46876;BME280;32866;50.160;14.768;2023-02-28T07:48:40;100733.03;;;3.11;100.00
46876;BME280;32866;50.160;14.768;2023-02-28T07:51:05;100710.38;;;3.39;100.00
46876;BME280;32866;50.160;14.768;2023-02-28T07:53:31;100732.56;;;4.06;97.95
46876;BME280;32866;50.160;14.768;2023-02-28T07:55:58;100730.63;;;4.30;89.61
46876;BME280;32866;50.160;14.768;2023-02-28T07:58:24;100731.34;;;4.27;87.21
46876;BME280;32866;50.160;14.768;2023-02-28T08:00:50;100693.41;;;3.84;86.70
46876;BME280;32866;50.160;14.768;2023-02-28T08:03:18;100729.31;;;3.97;86.45
46876;BME280;32866;50.160;14.768;2023-02-28T08:05:43;100728.63;;;3.81;86.71
46876;BME280;32866;50.160;14.768;2023-02-28T08:08:09;100722.84;;;3.63;90.14
46876;BME280;32866;50.160;14.768;2023-02-28T08:10:34;100681.25;;;3.55;86.42
46876;BME280;32866;50.160;14.768;2023-02-28T08:13:00;100712.38;;;4.54;84.80
46876;BME280;32866;50.160;14.768;2023-02-28T08:15:25;100698.59;;;4.39;84.10
46876;BME280;32866;50.160;14.768;2023-02-28T08:17:51;100726.81;;;4.85;84.97
46876;BME280;32866;50.160;14.768;2023-02-28T08:20:16;100689.53;;;4.81;77.65
46876;BME280;32866;50.160;14.768;2023-02-28T08:22:42;100719.78;;;4.80;79.65
46876;BME280;32866;50.160;14.768;2023-02-28T08:25:08;100721.22;;;4.74;78.63
46876;BME280;32866;50.160;14.768;2023-02-28T08:27:33;100688.88;;;4.38;78.63
46876;BME280;32866;50.160;14.768;2023-02-28T08:29:59;100718.31;;;4.86;79.94
46876;BME280;32866;50.160;14.768;2023-02-28T08:32:24;100711.00;;;4.40;79.65
46876;BME280;32866;50.160;14.768;2023-02-28T08:34:50;100719.25;;;4.21;79.12
46876;BME280;32866;50.160;14.768;2023-02-28T08:37:15;100718.25;;;3.86;81.39
46876;BME280;32866;50.160;14.768;2023-02-28T08:39:41;100717.59;;;3.93;81.44
46876;BME280;32866;50.160;14.768;2023-02-28T08:42:06;100689.88;;;4.03;80.31
46876;BME280;32866;50.160;14.768;2023-02-28T08:44:31;100693.84;;;4.09;77.27
46876;BME280;32866;50.160;14.768;2023-02-28T08:46:57;100715.16;;;4.57;76.22
46876;BME280;32866;50.160;14.768;2023-02-28T08:49:22;100684.38;;;4.46;76.21
46876;BME280;32866;50.160;14.768;2023-02-28T08:51:47;100678.56;;;4.48;78.13
46876;BME280;32866;50.160;14.768;2023-02-28T08:54:13;100714.97;;;4.70;75.71
46876;BME280;32866;50.160;14.768;2023-02-28T08:56:41;100718.56;;;4.04;77.60
46876;BME280;32866;50.160;14.768;2023-02-28T08:59:08;100686.88;;;3.66;80.66
46876;BME280;32866;50.160;14.768;2023-02-28T09:01:34;100682.81;;;3.56;78.15
46876;BME280;32866;50.160;14.768;2023-02-28T09:03:59;100736.03;;;3.64;77.67
46876;BME280;32866;50.160;14.768;2023-02-28T09:06:27;100716.59;;;3.82;79.07
46876;BME280;32866;50.160;14.768;2023-02-28T09:08:52;100714.47;;;3.91;77.88
46876;BME280;32866;50.160;14.768;2023-02-28T09:11:18;100721.22;;;4.24;77.28
46876;BME280;32866;50.160;14.768;2023-02-28T09:13:44;100718.53;;;5.04;75.00
46876;BME280;32866;50.160;14.768;2023-02-28T09:16:12;100717.44;;;5.39;73.80
46876;BME280;32866;50.160;14.768;2023-02-28T09:18:38;100715.59;;;5.84;69.61
46876;BME280;32866;50.160;14.768;2023-02-28T09:21:06;100708.78;;;5.30;70.00
46876;BME280;32866;50.160;14.768;2023-02-28T09:23:32;100712.28;;;5.64;69.95
46876;BME280;32866;50.160;14.768;2023-02-28T09:25:57;100714.31;;;5.37;71.08
46876;BME280;32866;50.160;14.768;2023-02-28T09:28:23;100706.03;;;5.60;71.46
46876;BME280;32866;50.160;14.768;2023-02-28T09:30:50;100714.59;;;5.62;69.75
46876;BME280;32866;50.160;14.768;2023-02-28T09:33:17;100711.38;;;6.28;69.47
46876;BME280;32866;50.160;14.768;2023-02-28T09:35:42;100663.78;;;6.66;66.43
46876;BME280;32866;50.160;14.768;2023-02-28T09:38:09;100705.03;;;6.68;61.18
46876;BME280;32866;50.160;14.768;2023-02-28T09:40:54;100696.44;;;6.59;59.10
46876;BME280;32866;50.160;14.768;2023-02-28T09:43:23;100699.34;;;6.88;57.50
46876;BME280;32866;50.160;14.768;2023-02-28T09:46:00;100705.88;;;6.73;54.71
46876;BME280;32866;50.160;14.768;2023-02-28T09:48:32;100681.63;;;6.05;55.60
46876;BME280;32866;50.160;14.768;2023-02-28T09:51:13;100714.78;;;6.69;55.18
46876;BME280;32866;50.160;14.768;2023-02-28T09:53:40;100700.13;;;6.88;55.36
46876;BME280;32866;50.160;14.768;2023-02-28T09:56:15;100709.69;;;6.64;53.47
46876;BME280;32866;50.160;14.768;2023-02-28T09:58:54;100704.06;;;7.02;51.96
46876;BME280;32866;50.160;14.768;2023-02-28T10:01:27;100709.34;;;7.50;52.82
46876;BME280;32866;50.160;14.768;2023-02-28T10:04:00;100679.84;;;8.10;50.35
46876;BME280;32866;50.160;14.768;2023-02-28T10:06:35;100688.06;;;8.53;47.27
46876;BME280;32866;50.160;14.768;2023-02-28T10:09:08;100716.09;;;7.89;45.46
46876;BME280;32866;50.160;14.768;2023-02-28T10:11:36;100714.09;;;7.68;48.95
46876;BME280;32866;50.160;14.768;2023-02-28T10:16:38;100713.81;;;8.52;47.51
46876;BME280;32866;50.160;14.768;2023-02-28T10:21:59;100706.78;;;8.36;43.57
46876;BME280;32866;50.160;14.768;2023-02-28T10:27:14;100712.94;;;9.05;43.25
46876;BME280;32866;50.160;14.768;2023-02-28T10:29:43;100698.69;;;9.50;41.91
46876;BME280;32866;50.160;14.768;2023-02-28T10:32:11;100702.00;;;10.43;40.44
46876;BME280;32866;50.160;14.768;2023-02-28T10:34:38;100707.50;;;10.43;41.35
46876;BME280;32866;50.160;14.768;2023-02-28T10:37:03;100673.13;;;10.27;41.26
46876;BME280;32866;50.160;14.768;2023-02-28T10:39:40;100699.28;;;9.83;40.55
46876;BME280;32866;50.160;14.768;2023-02-28T10:42:19;100692.56;;;9.95;42.40
46876;BME280;32866;50.160;14.768;2023-02-28T10:44:45;100661.66;;;9.94;40.68
46876;BME280;32866;50.160;14.768;2023-02-28T10:47:19;100685.19;;;11.47;38.89
46876;BME280;32866;50.160;14.768;2023-02-28T10:49:49;100696.69;;;11.97;37.02
46876;BME280;32866;50.160;14.768;2023-02-28T10:52:33;100688.00;;;12.25;36.29
46876;BME280;32866;50.160;14.768;2023-02-28T10:55:20;100691.44;;;12.53;36.21
46876;BME280;32866;50.160;14.768;2023-02-28T10:57:46;100689.59;;;12.23;35.52
46876;BME280;32866;50.160;14.768;2023-02-28T11:00:18;100680.97;;;12.88;35.67
46876;BME280;32866;50.160;14.768;2023-02-28T11:02:45;100685.44;;;12.82;34.58
46876;BME280;32866;50.160;14.768;2023-02-28T11:05:23;100681.19;;;12.10;35.67
46876;BME280;32866;50.160;14.768;2023-02-28T11:07:59;100693.91;;;12.48;36.97
46876;BME280;32866;50.160;14.768;2023-02-28T11:10:31;100693.50;;;13.33;34.33
46876;BME280;32866;50.160;14.768;2023-02-28T11:13:00;100661.03;;;12.84;34.01
46876;BME280;32866;50.160;14.768;2023-02-28T11:15:28;100684.53;;;12.89;33.99
46876;BME280;32866;50.160;14.768;2023-02-28T11:20:32;100675.31;;;10.88;38.60
46876;BME280;32866;50.160;14.768;2023-02-28T11:23:00;100672.56;;;11.54;37.50
46876;BME280;32866;50.160;14.768;2023-02-28T11:25:30;100681.22;;;9.96;38.83
46876;BME280;32866;50.160;14.768;2023-02-28T11:36:13;100668.06;;;11.36;37.89
46876;BME280;32866;50.160;14.768;2023-02-28T11:38:39;100659.56;;;11.85;36.27
46876;BME280;32866;50.160;14.768;2023-02-28T11:41:21;100640.06;;;12.03;36.67
46876;BME280;32866;50.160;14.768;2023-02-28T11:46:39;100663.84;;;13.57;33.43
46876;BME280;32866;50.160;14.768;2023-02-28T11:51:32;100649.63;;;15.29;31.52
46876;BME280;32866;50.160;14.768;2023-02-28T11:56:55;100650.09;;;15.40;30.48
46876;BME280;32866;50.160;14.768;2023-02-28T12:10:29;100633.28;;;12.95;33.54
46876;BME280;32866;50.160;14.768;2023-02-28T12:15:48;100630.94;;;13.86;31.14
46876;BME280;32866;50.160;14.768;2023-02-28T12:21:09;100626.88;;;13.02;33.23
46876;BME280;32866;50.160;14.768;2023-02-28T12:28:57;100627.56;;;14.12;31.30
46876;BME280;32866;50.160;14.768;2023-02-28T12:31:27;100621.19;;;13.98;33.02
46876;BME280;32866;50.160;14.768;2023-02-28T12:34:00;100632.38;;;13.58;31.81
46876;BME280;32866;50.160;14.768;2023-02-28T12:36:27;100624.28;;;14.46;31.49
46876;BME280;32866;50.160;14.768;2023-02-28T12:39:08;100618.81;;;15.30;30.44
46876;BME280;32866;50.160;14.768;2023-02-28T12:41:40;100617.91;;;15.20;30.10
46876;BME280;32866;50.160;14.768;2023-02-28T12:44:20;100625.44;;;13.33;33.43
46876;BME280;32866;50.160;14.768;2023-02-28T12:46:50;100623.84;;;12.76;33.89
46876;BME280;32866;50.160;14.768;2023-02-28T12:49:21;100609.47;;;13.25;34.15
46876;BME280;32866;50.160;14.768;2023-02-28T12:51:47;100596.78;;;15.01;31.48
46876;BME280;32866;50.160;14.768;2023-02-28T12:54:36;100613.59;;;14.64;31.37
46876;BME280;32866;50.160;14.768;2023-02-28T13:00:18;100613.44;;;13.77;32.95
46876;BME280;32866;50.160;14.768;2023-02-28T13:05:37;100610.31;;;13.42;33.12
46876;BME280;32866;50.160;14.768;2023-02-28T13:11:29;100603.41;;;13.33;32.69
46876;BME280;32866;50.160;14.768;2023-02-28T13:14:00;100604.22;;;13.67;31.95
46876;BME280;32866;50.160;14.768;2023-02-28T13:16:25;100586.00;;;13.73;31.89
46876;BME280;32866;50.160;14.768;2023-02-28T13:18:51;100603.09;;;13.48;32.96
46876;BME280;32866;50.160;14.768;2023-02-28T13:21:26;100591.03;;;12.85;33.50
46876;BME280;32866;50.160;14.768;2023-02-28T13:26:21;100595.91;;;11.39;36.68
46876;BME280;32866;50.160;14.768;2023-02-28T13:31:24;100564.16;;;11.11;36.19
46876;BME280;32866;50.160;14.768;2023-02-28T13:36:31;100585.81;;;11.60;35.94
46876;BME280;32866;50.160;14.768;2023-02-28T13:41:49;100578.75;;;10.73;37.02
46876;BME280;32866;50.160;14.768;2023-02-28T13:44:22;100588.09;;;10.42;38.15
46876;BME280;32866;50.160;14.768;2023-02-28T13:57:51;100587.31;;;9.43;39.62
46876;BME280;32866;50.160;14.768;2023-02-28T14:00:40;100584.81;;;9.71;40.03
46876;BME280;32866;50.160;14.768;2023-02-28T14:05:46;100584.81;;;9.04;39.99
46876;BME280;32866;50.160;14.768;2023-02-28T14:08:20;100581.09;;;8.62;40.53
46876;BME280;32866;50.160;14.768;2023-02-28T14:10:49;100582.69;;;8.48;40.43
46876;BME280;32866;50.160;14.768;2023-02-28T14:16:00;100579.59;;;8.17;42.06
46876;BME280;32866;50.160;14.768;2023-02-28T14:18:34;100539.84;;;8.02;42.95
46876;BME280;32866;50.160;14.768;2023-02-28T14:21:11;100575.69;;;8.26;43.48
46876;BME280;32866;50.160;14.768;2023-02-28T14:23:46;100572.97;;;8.01;43.59
46876;BME280;32866;50.160;14.768;2023-02-28T14:31:45;100564.78;;;8.11;42.15
46876;BME280;32866;50.160;14.768;2023-02-28T14:34:35;100564.81;;;7.83;43.25
46876;BME280;32866;50.160;14.768;2023-02-28T14:37:03;100558.19;;;7.94;43.43
46876;BME280;32866;50.160;14.768;2023-02-28T14:39:29;100553.09;;;7.42;45.84
46876;BME280;32866;50.160;14.768;2023-02-28T14:41:56;100558.41;;;6.81;45.69
46876;BME280;32866;50.160;14.768;2023-02-28T14:44:27;100551.06;;;6.93;45.95
46876;BME280;32866;50.160;14.768;2023-02-28T14:47:01;100559.22;;;6.89;46.04
46876;BME280;32866;50.160;14.768;2023-02-28T14:49:34;100555.22;;;6.65;47.81
46876;BME280;32866;50.160;14.768;2023-02-28T14:52:12;100553.72;;;6.82;45.20